createdAt,value
2022-12-19T00:00:35.868Z,22.83
2022-12-19T00:03:23.180Z,14.83
2022-12-19T00:06:10.360Z,22.17
2022-12-19T00:08:59.087Z,20.17
2022-12-19T00:11:46.319Z,15.13
2022-12-19T00:14:32.918Z,15.17
2022-12-19T00:17:21.319Z,18.53
2022-12-19T00:20:09.516Z,16.10
2022-12-19T00:22:59.274Z,12.90
2022-12-19T00:25:46.171Z,21.00
2022-12-19T00:28:34.082Z,18.23
2022-12-19T00:31:22.730Z,14.73
2022-12-19T00:34:11.870Z,17.10
2022-12-19T00:36:58.937Z,15.30
2022-12-19T00:39:46.896Z,14.47
2022-12-19T00:42:33.921Z,22.20
2022-12-19T00:45:20.962Z,19.33
2022-12-19T00:48:07.913Z,26.73
2022-12-19T00:51:02.437Z,18.63
2022-12-19T00:53:50.765Z,17.53
2022-12-19T00:56:38.494Z,19.00
2022-12-19T00:59:26.754Z,15.20
2022-12-19T01:02:14.105Z,26.07
2022-12-19T01:05:01.293Z,16.53
2022-12-19T01:07:49.642Z,18.20
2022-12-19T01:10:36.775Z,21.80
2022-12-19T01:13:24.325Z,19.90
2022-12-19T01:16:13.698Z,20.27
2022-12-19T01:19:00.928Z,29.00
2022-12-19T01:21:50.347Z,26.50
2022-12-19T01:24:40.693Z,21.13
2022-12-19T01:27:27.567Z,27.10
2022-12-19T01:30:15.384Z,23.70
2022-12-19T01:33:02.750Z,16.30
2022-12-19T01:35:51.169Z,18.33
2022-12-19T01:38:38.642Z,15.60
2022-12-19T01:41:27.416Z,16.07
2022-12-19T01:44:14.609Z,24.10
2022-12-19T01:47:02.786Z,18.87
2022-12-19T01:49:49.630Z,19.93
2022-12-19T01:52:36.965Z,17.70
2022-12-19T01:55:24.211Z,15.87
2022-12-19T01:58:14.153Z,27.47
2022-12-19T02:01:01.293Z,20.50
2022-12-19T02:03:49.704Z,27.70
2022-12-19T02:06:36.718Z,18.17
2022-12-19T02:09:26.493Z,18.80
2022-12-19T02:12:14.094Z,15.00
2022-12-19T02:15:05.139Z,16.97
2022-12-19T02:18:05.084Z,21.87
2022-12-19T02:21:19.803Z,25.77
2022-12-19T02:24:39.524Z,16.83
2022-12-19T02:27:59.785Z,17.57
2022-12-19T02:31:08.181Z,14.00
2022-12-19T02:34:09.950Z,16.77
2022-12-19T02:37:02.018Z,20.23
2022-12-19T02:39:56.097Z,18.77
2022-12-19T02:42:46.577Z,14.47
2022-12-19T02:45:38.392Z,17.90
2022-12-19T02:48:28.059Z,14.43
2022-12-19T02:51:14.746Z,12.67
2022-12-19T02:54:01.670Z,12.27
2022-12-19T02:56:56.019Z,10.37
2022-12-19T02:59:57.171Z,14.30
2022-12-19T03:03:00.560Z,13.47
2022-12-19T03:06:02.058Z,11.27
2022-12-19T03:08:55.356Z,12.93
2022-12-19T03:11:43.406Z,15.23
2022-12-19T03:14:32.413Z,13.47
2022-12-19T03:17:22.650Z,11.90
2022-12-19T03:20:15.427Z,14.17
2022-12-19T03:23:03.945Z,14.13
2022-12-19T03:25:58.460Z,11.30
2022-12-19T03:28:51.142Z,11.50
2022-12-19T03:31:40.017Z,13.17
2022-12-19T03:34:30.803Z,13.13
2022-12-19T03:37:20.444Z,10.17
2022-12-19T03:40:12.662Z,11.90
2022-12-19T03:43:12.103Z,12.10
2022-12-19T03:46:04.066Z,10.00
2022-12-19T03:48:53.708Z,10.03
2022-12-19T03:51:48.208Z,14.27
2022-12-19T03:54:42.109Z,9.67
2022-12-19T03:57:36.065Z,13.60
2022-12-19T04:00:24.953Z,10.93
2022-12-19T04:03:13.259Z,12.97
2022-12-19T04:06:03.158Z,11.23
2022-12-19T04:08:51.425Z,9.00
2022-12-19T04:11:43.135Z,11.37
2022-12-19T04:14:34.016Z,10.70
2022-12-19T04:17:31.624Z,9.77
2022-12-19T04:20:20.089Z,10.57
2022-12-19T04:23:14.971Z,14.33
2022-12-19T04:26:04.451Z,9.93
2022-12-19T04:28:54.550Z,12.10
2022-12-19T04:31:43.675Z,11.27
2022-12-19T04:34:36.851Z,11.07
2022-12-19T04:37:27.381Z,8.57
2022-12-19T04:40:15.122Z,9.13
2022-12-19T04:43:02.837Z,8.73
2022-12-19T04:45:55.516Z,7.30
2022-12-19T04:48:45.508Z,9.77
2022-12-19T04:51:32.559Z,10.80
2022-12-19T04:54:19.318Z,8.60
2022-12-19T04:57:06.215Z,6.77
2022-12-19T04:59:53.524Z,7.43
2022-12-19T05:02:41.391Z,10.83
2022-12-19T05:05:30.272Z,7.43
2022-12-19T05:08:17.455Z,9.27
2022-12-19T05:11:05.408Z,7.43
2022-12-19T05:13:52.667Z,7.43
2022-12-19T05:16:39.879Z,5.90
2022-12-19T05:19:27.014Z,6.77
2022-12-19T05:22:15.723Z,6.97
2022-12-19T05:25:02.665Z,8.37
2022-12-19T05:27:49.962Z,7.40
2022-12-19T05:30:37.142Z,11.77
2022-12-19T05:33:24.236Z,8.33
2022-12-19T05:36:12.339Z,9.20
2022-12-19T05:39:00.564Z,7.20
2022-12-19T05:41:49.322Z,8.27
2022-12-19T05:44:37.541Z,4.67
2022-12-19T05:47:24.653Z,7.03
2022-12-19T05:50:12.169Z,5.83
2022-12-19T05:52:59.026Z,5.87
2022-12-19T05:55:47.469Z,7.17
2022-12-19T05:58:35.044Z,8.27
2022-12-19T06:01:23.783Z,6.37
2022-12-19T06:04:10.854Z,7.20
2022-12-19T06:06:58.248Z,6.77
2022-12-19T06:09:45.510Z,8.67
2022-12-19T06:12:34.215Z,12.00
2022-12-19T06:15:21.378Z,9.73
2022-12-19T06:18:08.459Z,5.07
2022-12-19T06:20:59.800Z,13.93
2022-12-19T06:23:46.985Z,5.17
2022-12-19T06:26:33.841Z,9.47
2022-12-19T06:29:22.204Z,10.63
2022-12-19T06:32:09.216Z,10.37
2022-12-19T06:35:04.177Z,8.43
2022-12-19T06:37:53.619Z,6.67
2022-12-19T06:41:02.083Z,9.63
2022-12-19T06:43:53.416Z,10.03
2022-12-19T06:46:42.527Z,7.40
2022-12-19T06:49:30.525Z,5.23
2022-12-19T06:52:18.002Z,8.10
2022-12-19T06:55:06.044Z,9.00
2022-12-19T06:57:53.171Z,6.87
2022-12-19T07:00:40.237Z,6.20
2022-12-19T07:03:33.607Z,7.60
2022-12-19T07:06:20.701Z,16.67
2022-12-19T07:09:08.265Z,10.57
2022-12-19T07:11:56.258Z,8.40
2022-12-19T07:14:43.496Z,8.97
2022-12-19T07:17:31.237Z,7.80
2022-12-19T07:20:20.870Z,9.47
2022-12-19T07:23:08.859Z,11.57
2022-12-19T07:25:56.004Z,7.83
2022-12-19T07:28:44.680Z,12.00
2022-12-19T07:31:31.776Z,13.70
2022-12-19T07:34:19.190Z,11.87
2022-12-19T07:37:08.146Z,11.33
2022-12-19T07:39:55.137Z,11.20
2022-12-19T07:42:42.082Z,21.83
2022-12-19T07:45:29.443Z,12.17
2022-12-19T07:48:16.516Z,12.63
2022-12-19T07:51:05.529Z,18.37
2022-12-19T07:53:53.592Z,12.33
2022-12-19T07:56:41.277Z,15.03
2022-12-19T07:59:32.230Z,12.57
2022-12-19T08:02:22.811Z,14.63
2022-12-19T08:05:11.523Z,11.47
2022-12-19T08:07:58.482Z,17.67
2022-12-19T08:10:47.003Z,16.10
2022-12-19T08:13:39.618Z,12.03
2022-12-19T08:16:30.333Z,11.27
2022-12-19T08:19:17.683Z,10.97
2022-12-19T08:22:06.206Z,18.40
2022-12-19T08:24:53.970Z,13.47
2022-12-19T08:27:43.106Z,19.80
2022-12-19T08:30:30.046Z,10.73
2022-12-19T08:33:17.519Z,13.03
2022-12-19T08:36:06.216Z,10.60
2022-12-19T08:38:53.568Z,10.50
2022-12-19T08:41:40.232Z,11.63
2022-12-19T08:44:28.920Z,13.03
2022-12-19T08:47:16.215Z,8.70
2022-12-19T08:50:03.494Z,9.03
2022-12-19T08:52:50.314Z,7.73
2022-12-19T08:55:37.319Z,8.40
2022-12-19T08:58:24.655Z,7.87
2022-12-19T09:01:16.148Z,7.67
2022-12-19T09:04:43.455Z,9.23
2022-12-19T09:07:10.402Z,6.03
2022-12-19T09:09:57.633Z,9.23
2022-12-19T09:12:44.754Z,7.17
2022-12-19T09:15:32.099Z,7.37
2022-12-19T09:18:20.995Z,8.67
2022-12-19T09:21:11.864Z,19.80
2022-12-19T09:24:07.054Z,20.87
2022-12-19T09:26:54.771Z,6.90
2022-12-19T09:29:41.897Z,9.60
2022-12-19T09:32:29.160Z,10.87
2022-12-19T09:35:17.706Z,9.10
2022-12-19T09:38:04.857Z,6.27
2022-12-19T09:41:03.513Z,9.60
2022-12-19T09:44:18.914Z,10.33
2022-12-19T09:47:14.619Z,7.87
2022-12-19T09:50:03.410Z,7.27
2022-12-19T09:53:00.219Z,7.07
2022-12-19T09:55:49.181Z,8.37
2022-12-19T09:58:46.680Z,5.70
2022-12-19T10:01:51.928Z,5.37
2022-12-19T10:04:44.746Z,6.87
2022-12-19T10:07:54.778Z,7.13
2022-12-19T10:12:36.160Z,8.83
2022-12-19T10:14:20.568Z,6.47
2022-12-19T10:17:25.325Z,6.57
2022-12-19T10:20:22.720Z,8.50
2022-12-19T10:23:41.701Z,7.60
2022-12-19T10:26:35.609Z,5.70
2022-12-19T10:29:52.854Z,9.17
2022-12-19T10:32:47.966Z,11.57
2022-12-19T10:35:38.961Z,8.33
2022-12-19T10:38:32.512Z,6.90
2022-12-19T10:41:25.285Z,8.83
2022-12-19T10:44:15.968Z,6.70
2022-12-19T10:47:04.476Z,6.10
2022-12-19T10:49:51.981Z,9.57
2022-12-19T10:52:52.893Z,6.30
2022-12-19T10:55:44.129Z,7.73
2022-12-19T10:58:35.122Z,9.30
2022-12-19T11:01:26.956Z,7.53
2022-12-19T11:04:26.977Z,9.00
2022-12-19T11:07:21.024Z,7.60
2022-12-19T11:11:41.386Z,8.57
2022-12-19T11:20:38.196Z,10.47
2022-12-19T11:27:39.956Z,7.07
2022-12-19T11:29:37.683Z,6.60
2022-12-19T11:29:40.108Z,8.43
2022-12-19T11:30:40.969Z,6.27
2022-12-19T11:33:14.326Z,8.50
2022-12-19T11:36:03.745Z,8.30
2022-12-19T11:38:54.258Z,7.80
2022-12-19T11:41:46.430Z,8.63
2022-12-19T11:44:40.295Z,6.40
2022-12-19T11:47:38.248Z,5.87
2022-12-19T11:50:31.306Z,7.33
2022-12-19T11:53:24.814Z,8.93
2022-12-19T11:56:16.245Z,6.90
2022-12-19T11:59:13.569Z,7.00
2022-12-19T12:02:24.062Z,8.70
2022-12-19T12:05:35.311Z,5.57
2022-12-19T12:11:24.840Z,5.63
2022-12-19T12:19:39.158Z,5.80
2022-12-19T12:19:52.131Z,5.77
2022-12-19T12:31:00.176Z,7.93
2022-12-19T12:31:17.155Z,5.17
2022-12-19T12:31:39.144Z,8.03
2022-12-19T12:31:48.870Z,6.93
2022-12-19T12:35:40.933Z,8.17
2022-12-19T12:38:51.931Z,7.47
2022-12-19T12:42:12.144Z,12.93
2022-12-19T12:45:01.562Z,6.70
2022-12-19T12:47:52.316Z,5.93
2022-12-19T12:50:42.924Z,7.70
2022-12-19T12:53:35.070Z,5.70
2022-12-19T12:56:23.754Z,7.47
2022-12-19T12:59:24.545Z,11.90
2022-12-19T13:02:18.589Z,7.60
2022-12-19T13:05:25.689Z,10.27
2022-12-19T13:08:35.609Z,9.60
2022-12-19T13:11:58.018Z,7.77
2022-12-19T13:14:48.336Z,10.23
2022-12-19T13:18:03.405Z,9.57
2022-12-19T13:20:51.002Z,7.10
2022-12-19T13:24:16.206Z,8.23
2022-12-19T13:27:05.748Z,8.00
2022-12-19T13:29:55.683Z,11.63
2022-12-19T13:33:13.269Z,8.80
2022-12-19T13:39:26.302Z,7.93
2022-12-19T13:39:54.295Z,7.40
2022-12-19T13:43:10.285Z,8.53
2022-12-19T13:46:00.106Z,6.57
2022-12-19T13:48:49.538Z,7.30
2022-12-19T13:51:47.518Z,11.30
2022-12-19T13:54:39.433Z,7.43
2022-12-19T13:57:29.079Z,8.20
2022-12-19T14:00:21.961Z,8.73
2022-12-19T14:03:17.648Z,4.90
2022-12-19T14:06:16.096Z,10.47
2022-12-19T14:11:27.195Z,8.97
2022-12-19T14:13:55.056Z,9.73
2022-12-19T14:15:52.438Z,12.23
2022-12-19T14:18:43.012Z,9.03
2022-12-19T14:22:09.906Z,5.73
2022-12-19T14:24:40.546Z,9.83
2022-12-19T14:28:26.431Z,7.93
2022-12-19T14:30:44.802Z,9.30
2022-12-19T14:33:46.476Z,11.20
2022-12-19T14:36:48.115Z,9.53
2022-12-19T14:39:38.532Z,6.87
2022-12-19T14:43:57.771Z,6.17
2022-12-19T14:54:06.893Z,11.40
2022-12-19T14:54:11.024Z,8.13
2022-12-19T14:54:37.572Z,9.57
2022-12-19T14:56:13.044Z,10.60
2022-12-19T14:58:58.662Z,7.00
2022-12-19T15:01:53.856Z,8.97
2022-12-19T15:04:53.369Z,9.40
2022-12-19T15:07:45.813Z,7.90
2022-12-19T15:11:08.578Z,11.60
2022-12-19T15:14:54.392Z,8.00
2022-12-19T15:16:48.364Z,7.37
2022-12-19T15:19:35.856Z,6.80
2022-12-19T15:22:24.472Z,9.73
2022-12-19T15:25:28.800Z,7.60
2022-12-19T15:28:24.711Z,12.00
2022-12-19T15:31:24.547Z,10.10
2022-12-19T15:34:44.811Z,9.67
2022-12-19T15:37:30.351Z,9.63
2022-12-19T15:40:19.404Z,10.97
2022-12-19T15:43:06.977Z,9.60
2022-12-19T15:45:58.711Z,15.27
2022-12-19T15:48:48.536Z,18.23
2022-12-19T15:51:35.616Z,16.37
2022-12-19T15:57:34.872Z,11.43
2022-12-19T16:00:25.443Z,18.00
2022-12-19T16:03:22.714Z,16.87
2022-12-19T16:06:14.303Z,14.37
2022-12-19T16:09:01.350Z,14.70
2022-12-19T16:11:50.756Z,17.67
2022-12-19T16:14:37.688Z,22.60
2022-12-19T16:17:26.179Z,25.67
2022-12-19T16:20:19.795Z,25.87
2022-12-19T16:23:07.482Z,15.23
2022-12-19T16:25:54.778Z,11.70
2022-12-19T16:28:43.473Z,15.80
2022-12-19T16:31:30.652Z,9.60
2022-12-19T16:34:20.535Z,12.57
2022-12-19T16:37:07.639Z,14.37
2022-12-19T16:39:54.736Z,10.47
2022-12-19T16:42:42.130Z,10.40
2022-12-19T16:45:32.937Z,10.17
2022-12-19T16:48:21.934Z,8.93
2022-12-19T16:51:17.747Z,11.83
2022-12-19T16:54:05.334Z,8.70
2022-12-19T16:56:54.421Z,10.40
2022-12-19T16:59:42.472Z,11.27
2022-12-19T17:02:41.828Z,14.33
2022-12-19T17:05:31.361Z,9.90
2022-12-19T17:08:19.357Z,11.20
2022-12-19T17:11:08.014Z,9.03
2022-12-19T17:14:01.838Z,13.00
2022-12-19T17:16:53.478Z,15.90
2022-12-19T17:19:45.280Z,12.53
2022-12-19T17:22:32.524Z,15.30
2022-12-19T17:25:25.652Z,23.47
2022-12-19T17:28:13.940Z,32.37
2022-12-19T17:31:05.500Z,23.47
2022-12-19T17:33:53.079Z,31.37
2022-12-19T17:36:41.798Z,17.50
2022-12-19T17:39:31.231Z,11.97
2022-12-19T17:42:23.346Z,30.27
2022-12-19T17:45:11.772Z,16.60
2022-12-19T17:48:03.438Z,11.97
2022-12-19T17:50:51.403Z,14.17
2022-12-19T17:53:40.079Z,12.43
2022-12-19T17:56:27.371Z,14.07
2022-12-19T17:59:14.856Z,12.27
2022-12-19T18:02:01.947Z,16.07
2022-12-19T18:04:50.660Z,14.00
2022-12-19T18:07:38.043Z,17.87
2022-12-19T18:10:29.069Z,13.10
2022-12-19T18:13:16.448Z,17.90
2022-12-19T18:16:05.050Z,14.80
2022-12-19T18:18:52.155Z,16.13
2022-12-19T18:21:39.450Z,13.70
2022-12-19T18:24:26.985Z,14.97
2022-12-19T18:27:15.367Z,12.57
2022-12-19T18:30:02.441Z,12.40
2022-12-19T18:32:52.775Z,15.23
2022-12-19T18:35:42.512Z,14.10
2022-12-19T18:38:29.662Z,11.93
2022-12-19T18:41:17.847Z,17.37
2022-12-19T18:44:36.772Z,12.63
2022-12-19T18:47:26.747Z,14.07
2022-12-19T18:50:20.627Z,18.77
2022-12-19T18:53:12.355Z,19.70
2022-12-19T18:56:00.061Z,17.77
2022-12-19T18:58:48.550Z,15.67
2022-12-19T19:01:40.706Z,12.53
2022-12-19T19:04:28.189Z,12.17
2022-12-19T19:07:15.641Z,14.33
2022-12-19T19:10:03.107Z,16.37
2022-12-19T19:12:50.765Z,11.47
2022-12-19T19:15:41.770Z,14.03
2022-12-19T19:18:33.182Z,12.33
2022-12-19T19:21:22.331Z,11.67
2022-12-19T19:24:12.451Z,13.23
2022-12-19T19:27:15.339Z,15.30
2022-12-19T19:30:03.189Z,11.33
2022-12-19T19:32:54.023Z,12.93
2022-12-19T19:35:45.237Z,24.50
2022-12-19T19:38:32.689Z,27.70
2022-12-19T19:41:19.631Z,31.67
2022-12-19T19:44:06.676Z,18.57
2022-12-19T19:46:53.687Z,14.60
2022-12-19T19:49:41.904Z,18.03
2022-12-19T19:52:32.364Z,18.90
2022-12-19T19:55:19.927Z,23.60
2022-12-19T19:58:07.095Z,29.47
2022-12-19T20:01:24.194Z,36.70
2022-12-19T20:04:15.320Z,23.60
2022-12-19T20:07:02.526Z,25.03
2022-12-19T20:09:51.247Z,83.03
2022-12-19T20:12:38.535Z,27.27
2022-12-19T20:15:25.818Z,86.37
2022-12-19T20:18:13.016Z,81.97
2022-12-19T20:21:00.410Z,109.97
2022-12-19T20:23:47.933Z,44.43
2022-12-19T20:26:36.773Z,18.47
2022-12-19T20:29:24.085Z,23.27
2022-12-19T20:32:11.259Z,34.03
2022-12-19T20:34:58.900Z,21.43
2022-12-19T20:37:45.925Z,44.97
2022-12-19T20:40:33.205Z,29.20
2022-12-19T20:43:21.668Z,62.73
2022-12-19T20:46:10.543Z,50.87
2022-12-19T20:48:58.691Z,17.27
2022-12-19T20:51:47.834Z,19.87
2022-12-19T20:54:35.103Z,21.47
2022-12-19T20:57:22.527Z,20.30
2022-12-19T21:00:14.392Z,19.00
2022-12-19T21:03:27.812Z,15.33
2022-12-19T21:06:10.787Z,18.87
2022-12-19T21:08:58.633Z,14.07
2022-12-19T21:11:45.548Z,20.80
2022-12-19T21:14:32.715Z,17.40
2022-12-19T21:17:21.040Z,13.00
2022-12-19T21:20:09.596Z,15.60
2022-12-19T21:22:56.824Z,19.00
2022-12-19T21:25:44.166Z,17.17
2022-12-19T21:28:32.188Z,14.10
2022-12-19T21:31:21.785Z,13.33
2022-12-19T21:34:11.965Z,18.70
2022-12-19T21:36:59.308Z,14.47
2022-12-19T21:39:46.225Z,15.70
2022-12-19T21:42:33.552Z,13.77
2022-12-19T21:45:20.310Z,12.80
2022-12-19T21:48:07.455Z,15.63
2022-12-19T21:50:58.180Z,13.63
2022-12-19T21:53:45.863Z,17.23
2022-12-19T21:56:35.187Z,14.10
2022-12-19T21:59:22.138Z,15.97
2022-12-19T22:02:11.247Z,15.73
2022-12-19T22:04:59.980Z,12.13
2022-12-19T22:07:48.245Z,16.87
2022-12-19T22:10:35.404Z,16.20
2022-12-19T22:13:22.397Z,14.33
2022-12-19T22:16:10.263Z,22.20
2022-12-19T22:18:57.846Z,15.23
2022-12-19T22:21:46.002Z,16.43
2022-12-19T22:24:34.408Z,11.80
2022-12-19T22:27:21.485Z,12.23
2022-12-19T22:30:11.283Z,11.10
2022-12-19T22:32:58.336Z,10.57
2022-12-19T22:35:45.526Z,12.33
2022-12-19T22:38:33.055Z,16.87
2022-12-19T22:41:21.688Z,13.17
2022-12-19T22:44:09.543Z,11.30
2022-12-19T22:46:56.631Z,14.93
2022-12-19T22:49:43.615Z,15.03
2022-12-19T22:52:30.669Z,15.00
2022-12-19T22:55:18.073Z,12.50
2022-12-19T22:58:06.421Z,14.07
2022-12-19T23:00:53.520Z,14.07
2022-12-19T23:03:40.741Z,13.77
2022-12-19T23:06:30.477Z,11.10
2022-12-19T23:09:18.559Z,15.33
2022-12-19T23:12:06.032Z,11.30
2022-12-19T23:14:54.890Z,14.87
2022-12-19T23:17:41.994Z,13.33
2022-12-19T23:20:28.899Z,11.20
2022-12-19T23:23:16.486Z,11.90
2022-12-19T23:26:03.486Z,11.30
2022-12-19T23:28:53.389Z,12.63
2022-12-19T23:31:43.394Z,14.70
2022-12-19T23:34:30.322Z,13.47
2022-12-19T23:37:17.539Z,12.70
2022-12-19T23:40:05.068Z,12.27
2022-12-19T23:42:52.259Z,11.07
2022-12-19T23:45:39.830Z,10.40
2022-12-19T23:48:29.647Z,12.57
2022-12-19T23:51:19.551Z,13.27
2022-12-19T23:54:06.812Z,13.67
2022-12-19T23:56:54.192Z,14.33
2022-12-19T23:59:41.279Z,12.20
